sensor_id;sensor_type;location;lat;lon;timestamp;P1;durP1;ratioP1;P2;durP2;ratioP2
19846;SDS011;10084;50.518;8.588;2022-11-20T00:01:25;0.60;;;0.50;;
19846;SDS011;10084;50.518;8.588;2022-11-20T00:03:52;0.30;;;0.30;;
19846;SDS011;10084;50.518;8.588;2022-11-20T00:06:20;0.47;;;0.40;;
19846;SDS011;10084;50.518;8.588;2022-11-20T00:08:46;0.70;;;0.37;;
19846;SDS011;10084;50.518;8.588;2022-11-20T00:11:13;0.37;;;0.30;;
19846;SDS011;10084;50.518;8.588;2022-11-20T00:13:47;1.03;;;0.70;;
19846;SDS011;10084;50.518;8.588;2022-11-20T00:16:16;0.63;;;0.63;;
19846;SDS011;10084;50.518;8.588;2022-11-20T00:18:46;5.20;;;0.40;;
19846;SDS011;10084;50.518;8.588;2022-11-20T00:21:13;3.30;;;0.67;;
19846;SDS011;10084;50.518;8.588;2022-11-20T00:23:43;1.37;;;0.60;;
19846;SDS011;10084;50.518;8.588;2022-11-20T00:26:10;1.07;;;0.70;;
19846;SDS011;10084;50.518;8.588;2022-11-20T00:28:38;4.83;;;0.63;;
19846;SDS011;10084;50.518;8.588;2022-11-20T00:31:04;1.00;;;0.60;;
19846;SDS011;10084;50.518;8.588;2022-11-20T00:33:31;0.53;;;0.40;;
19846;SDS011;10084;50.518;8.588;2022-11-20T00:36:02;0.50;;;0.50;;
19846;SDS011;10084;50.518;8.588;2022-11-20T00:38:30;0.50;;;0.30;;
19846;SDS011;10084;50.518;8.588;2022-11-20T00:41:00;0.70;;;0.40;;
19846;SDS011;10084;50.518;8.588;2022-11-20T00:43:26;0.50;;;0.47;;
19846;SDS011;10084;50.518;8.588;2022-11-20T00:46:35;0.50;;;0.23;;
19846;SDS011;10084;50.518;8.588;2022-11-20T00:48:42;0.40;;;0.40;;
19846;SDS011;10084;50.518;8.588;2022-11-20T00:51:09;0.30;;;0.30;;
19846;SDS011;10084;50.518;8.588;2022-11-20T00:53:37;0.20;;;0.20;;
19846;SDS011;10084;50.518;8.588;2022-11-20T00:56:04;0.30;;;0.30;;
19846;SDS011;10084;50.518;8.588;2022-11-20T00:58:32;0.77;;;0.60;;
19846;SDS011;10084;50.518;8.588;2022-11-20T01:01:00;0.60;;;0.30;;
19846;SDS011;10084;50.518;8.588;2022-11-20T01:03:34;0.37;;;0.37;;
19846;SDS011;10084;50.518;8.588;2022-11-20T01:06:03;0.40;;;0.37;;
19846;SDS011;10084;50.518;8.588;2022-11-20T01:08:46;0.70;;;0.70;;
19846;SDS011;10084;50.518;8.588;2022-11-20T01:11:14;0.50;;;0.47;;
19846;SDS011;10084;50.518;8.588;2022-11-20T01:13:42;0.57;;;0.50;;
19846;SDS011;10084;50.518;8.588;2022-11-20T01:16:13;0.77;;;0.53;;
19846;SDS011;10084;50.518;8.588;2022-11-20T01:19:03;0.40;;;0.40;;
19846;SDS011;10084;50.518;8.588;2022-11-20T01:21:31;0.30;;;0.30;;
19846;SDS011;10084;50.518;8.588;2022-11-20T01:24:01;0.50;;;0.40;;
19846;SDS011;10084;50.518;8.588;2022-11-20T01:26:30;0.70;;;0.43;;
19846;SDS011;10084;50.518;8.588;2022-11-20T01:28:58;0.57;;;0.40;;
19846;SDS011;10084;50.518;8.588;2022-11-20T01:31:26;0.37;;;0.33;;
19846;SDS011;10084;50.518;8.588;2022-11-20T01:33:54;0.43;;;0.37;;
19846;SDS011;10084;50.518;8.588;2022-11-20T01:36:22;0.30;;;0.30;;
19846;SDS011;10084;50.518;8.588;2022-11-20T01:38:53;0.87;;;0.30;;
19846;SDS011;10084;50.518;8.588;2022-11-20T01:41:20;0.40;;;0.33;;
19846;SDS011;10084;50.518;8.588;2022-11-20T01:44:05;0.47;;;0.43;;
19846;SDS011;10084;50.518;8.588;2022-11-20T01:46:32;0.53;;;0.30;;
19846;SDS011;10084;50.518;8.588;2022-11-20T01:49:04;0.77;;;0.67;;
19846;SDS011;10084;50.518;8.588;2022-11-20T01:51:48;0.80;;;0.33;;
19846;SDS011;10084;50.518;8.588;2022-11-20T01:54:25;0.90;;;0.50;;
19846;SDS011;10084;50.518;8.588;2022-11-20T01:56:58;0.60;;;0.60;;
19846;SDS011;10084;50.518;8.588;2022-11-20T01:59:25;0.33;;;0.33;;
19846;SDS011;10084;50.518;8.588;2022-11-20T02:01:53;0.27;;;0.27;;
19846;SDS011;10084;50.518;8.588;2022-11-20T02:04:18;1.33;;;0.60;;
19846;SDS011;10084;50.518;8.588;2022-11-20T02:06:47;0.40;;;0.37;;
19846;SDS011;10084;50.518;8.588;2022-11-20T02:09:16;0.60;;;0.40;;
19846;SDS011;10084;50.518;8.588;2022-11-20T02:11:42;1.30;;;0.50;;
19846;SDS011;10084;50.518;8.588;2022-11-20T02:14:08;0.33;;;0.33;;
19846;SDS011;10084;50.518;8.588;2022-11-20T02:16:37;5.07;;;0.43;;
19846;SDS011;10084;50.518;8.588;2022-11-20T02:19:06;0.20;;;0.20;;
19846;SDS011;10084;50.518;8.588;2022-11-20T02:22:41;0.10;;;0.10;;
19846;SDS011;10084;50.518;8.588;2022-11-20T02:24:39;0.63;;;0.33;;
19846;SDS011;10084;50.518;8.588;2022-11-20T02:27:10;0.30;;;0.23;;
19846;SDS011;10084;50.518;8.588;2022-11-20T02:29:47;0.20;;;0.13;;
19846;SDS011;10084;50.518;8.588;2022-11-20T02:32:29;0.50;;;0.40;;
19846;SDS011;10084;50.518;8.588;2022-11-20T02:34:56;0.43;;;0.40;;
19846;SDS011;10084;50.518;8.588;2022-11-20T02:37:22;0.37;;;0.37;;
19846;SDS011;10084;50.518;8.588;2022-11-20T02:39:57;0.33;;;0.30;;
19846;SDS011;10084;50.518;8.588;2022-11-20T02:42:23;0.27;;;0.27;;
19846;SDS011;10084;50.518;8.588;2022-11-20T02:44:49;0.40;;;0.40;;
19846;SDS011;10084;50.518;8.588;2022-11-20T02:47:14;0.53;;;0.53;;
19846;SDS011;10084;50.518;8.588;2022-11-20T02:49:40;2.10;;;0.63;;
19846;SDS011;10084;50.518;8.588;2022-11-20T02:52:06;0.33;;;0.33;;
19846;SDS011;10084;50.518;8.588;2022-11-20T02:54:31;0.70;;;0.57;;
19846;SDS011;10084;50.518;8.588;2022-11-20T02:56:58;0.20;;;0.20;;
19846;SDS011;10084;50.518;8.588;2022-11-20T02:59:23;0.30;;;0.30;;
19846;SDS011;10084;50.518;8.588;2022-11-20T03:01:49;0.30;;;0.30;;
19846;SDS011;10084;50.518;8.588;2022-11-20T03:04:15;0.20;;;0.20;;
19846;SDS011;10084;50.518;8.588;2022-11-20T03:06:40;0.47;;;0.20;;
19846;SDS011;10084;50.518;8.588;2022-11-20T03:09:06;0.40;;;0.40;;
19846;SDS011;10084;50.518;8.588;2022-11-20T03:11:32;1.13;;;0.60;;
19846;SDS011;10084;50.518;8.588;2022-11-20T03:14:01;1.17;;;0.60;;
19846;SDS011;10084;50.518;8.588;2022-11-20T03:16:27;0.37;;;0.37;;
19846;SDS011;10084;50.518;8.588;2022-11-20T03:18:53;0.40;;;0.40;;
19846;SDS011;10084;50.518;8.588;2022-11-20T03:21:18;0.27;;;0.27;;
19846;SDS011;10084;50.518;8.588;2022-11-20T03:23:44;0.60;;;0.60;;
19846;SDS011;10084;50.518;8.588;2022-11-20T03:26:14;1.90;;;0.30;;
19846;SDS011;10084;50.518;8.588;2022-11-20T03:28:46;0.20;;;0.20;;
19846;SDS011;10084;50.518;8.588;2022-11-20T03:31:14;4.47;;;0.60;;
19846;SDS011;10084;50.518;8.588;2022-11-20T03:33:41;0.30;;;0.30;;
19846;SDS011;10084;50.518;8.588;2022-11-20T03:36:08;0.40;;;0.20;;
19846;SDS011;10084;50.518;8.588;2022-11-20T03:38:36;0.50;;;0.40;;
19846;SDS011;10084;50.518;8.588;2022-11-20T03:41:03;2.53;;;0.30;;
19846;SDS011;10084;50.518;8.588;2022-11-20T03:43:33;0.17;;;0.17;;
19846;SDS011;10084;50.518;8.588;2022-11-20T03:46:00;1.00;;;0.50;;
19846;SDS011;10084;50.518;8.588;2022-11-20T03:48:26;0.30;;;0.30;;
19846;SDS011;10084;50.518;8.588;2022-11-20T03:50:52;0.50;;;0.40;;
19846;SDS011;10084;50.518;8.588;2022-11-20T03:53:30;0.47;;;0.47;;
19846;SDS011;10084;50.518;8.588;2022-11-20T03:55:56;0.70;;;0.30;;
19846;SDS011;10084;50.518;8.588;2022-11-20T03:58:22;0.23;;;0.23;;
19846;SDS011;10084;50.518;8.588;2022-11-20T04:00:47;0.73;;;0.50;;
19846;SDS011;10084;50.518;8.588;2022-11-20T04:03:13;0.40;;;0.40;;
19846;SDS011;10084;50.518;8.588;2022-11-20T04:05:39;0.83;;;0.40;;
19846;SDS011;10084;50.518;8.588;2022-11-20T04:08:04;0.67;;;0.37;;
19846;SDS011;10084;50.518;8.588;2022-11-20T04:10:30;0.40;;;0.20;;
19846;SDS011;10084;50.518;8.588;2022-11-20T04:12:56;0.40;;;0.40;;
19846;SDS011;10084;50.518;8.588;2022-11-20T04:15:21;0.33;;;0.20;;
19846;SDS011;10084;50.518;8.588;2022-11-20T04:17:47;0.20;;;0.20;;
19846;SDS011;10084;50.518;8.588;2022-11-20T04:20:13;0.30;;;0.30;;
19846;SDS011;10084;50.518;8.588;2022-11-20T04:22:39;0.40;;;0.30;;
19846;SDS011;10084;50.518;8.588;2022-11-20T04:25:05;0.30;;;0.30;;
19846;SDS011;10084;50.518;8.588;2022-11-20T04:27:31;0.83;;;0.50;;
19846;SDS011;10084;50.518;8.588;2022-11-20T04:29:56;0.53;;;0.20;;
19846;SDS011;10084;50.518;8.588;2022-11-20T04:32:22;0.20;;;0.20;;
19846;SDS011;10084;50.518;8.588;2022-11-20T04:34:48;0.20;;;0.20;;
19846;SDS011;10084;50.518;8.588;2022-11-20T04:37:13;0.60;;;0.50;;
19846;SDS011;10084;50.518;8.588;2022-11-20T04:39:39;0.70;;;0.63;;
19846;SDS011;10084;50.518;8.588;2022-11-20T04:42:05;0.30;;;0.30;;
19846;SDS011;10084;50.518;8.588;2022-11-20T04:44:49;0.40;;;0.40;;
19846;SDS011;10084;50.518;8.588;2022-11-20T04:47:15;0.47;;;0.37;;
19846;SDS011;10084;50.518;8.588;2022-11-20T04:49:40;0.23;;;0.20;;
19846;SDS011;10084;50.518;8.588;2022-11-20T04:52:06;0.30;;;0.23;;
19846;SDS011;10084;50.518;8.588;2022-11-20T04:54:31;0.20;;;0.20;;
19846;SDS011;10084;50.518;8.588;2022-11-20T04:56:57;1.10;;;0.30;;
19846;SDS011;10084;50.518;8.588;2022-11-20T04:59:23;0.60;;;0.50;;
19846;SDS011;10084;50.518;8.588;2022-11-20T05:01:48;0.40;;;0.40;;
19846;SDS011;10084;50.518;8.588;2022-11-20T05:04:14;0.27;;;0.20;;
19846;SDS011;10084;50.518;8.588;2022-11-20T05:06:40;0.67;;;0.40;;
19846;SDS011;10084;50.518;8.588;2022-11-20T05:09:05;0.60;;;0.37;;
19846;SDS011;10084;50.518;8.588;2022-11-20T05:11:31;1.07;;;0.43;;
19846;SDS011;10084;50.518;8.588;2022-11-20T05:13:58;0.40;;;0.20;;
19846;SDS011;10084;50.518;8.588;2022-11-20T05:16:25;0.57;;;0.40;;
19846;SDS011;10084;50.518;8.588;2022-11-20T05:18:51;0.63;;;0.40;;
19846;SDS011;10084;50.518;8.588;2022-11-20T05:21:18;0.70;;;0.70;;
19846;SDS011;10084;50.518;8.588;2022-11-20T05:23:44;1.83;;;0.33;;
19846;SDS011;10084;50.518;8.588;2022-11-20T05:26:15;0.20;;;0.20;;
19846;SDS011;10084;50.518;8.588;2022-11-20T05:28:42;0.17;;;0.13;;
19846;SDS011;10084;50.518;8.588;2022-11-20T05:31:09;0.50;;;0.40;;
19846;SDS011;10084;50.518;8.588;2022-11-20T05:33:36;0.17;;;0.17;;
19846;SDS011;10084;50.518;8.588;2022-11-20T05:36:04;0.27;;;0.27;;
19846;SDS011;10084;50.518;8.588;2022-11-20T05:38:30;0.33;;;0.33;;
19846;SDS011;10084;50.518;8.588;2022-11-20T05:41:02;0.70;;;0.53;;
19846;SDS011;10084;50.518;8.588;2022-11-20T05:43:36;0.30;;;0.23;;
19846;SDS011;10084;50.518;8.588;2022-11-20T05:46:05;1.77;;;0.83;;
19846;SDS011;10084;50.518;8.588;2022-11-20T05:48:32;1.43;;;0.20;;
19846;SDS011;10084;50.518;8.588;2022-11-20T05:50:59;0.43;;;0.20;;
19846;SDS011;10084;50.518;8.588;2022-11-20T05:53:26;0.30;;;0.20;;
19846;SDS011;10084;50.518;8.588;2022-11-20T05:58:48;0.70;;;0.20;;
19846;SDS011;10084;50.518;8.588;2022-11-20T06:03:44;0.50;;;0.50;;
19846;SDS011;10084;50.518;8.588;2022-11-20T06:06:12;1.37;;;0.40;;
19846;SDS011;10084;50.518;8.588;2022-11-20T06:08:39;0.40;;;0.40;;
19846;SDS011;10084;50.518;8.588;2022-11-20T06:11:06;0.40;;;0.20;;
19846;SDS011;10084;50.518;8.588;2022-11-20T06:13:33;0.40;;;0.20;;
19846;SDS011;10084;50.518;8.588;2022-11-20T06:15:59;0.30;;;0.30;;
19846;SDS011;10084;50.518;8.588;2022-11-20T06:18:26;0.33;;;0.33;;
19846;SDS011;10084;50.518;8.588;2022-11-20T06:20:59;0.10;;;0.10;;
19846;SDS011;10084;50.518;8.588;2022-11-20T06:23:30;0.50;;;0.30;;
19846;SDS011;10084;50.518;8.588;2022-11-20T06:25:57;0.43;;;0.43;;
19846;SDS011;10084;50.518;8.588;2022-11-20T06:28:25;0.20;;;0.20;;
19846;SDS011;10084;50.518;8.588;2022-11-20T06:30:51;0.50;;;0.40;;
19846;SDS011;10084;50.518;8.588;2022-11-20T06:33:17;0.80;;;0.50;;
19846;SDS011;10084;50.518;8.588;2022-11-20T06:35:42;2.97;;;0.30;;
19846;SDS011;10084;50.518;8.588;2022-11-20T06:38:08;0.53;;;0.50;;
19846;SDS011;10084;50.518;8.588;2022-11-20T06:40:34;0.80;;;0.53;;
19846;SDS011;10084;50.518;8.588;2022-11-20T06:42:59;0.70;;;0.57;;
19846;SDS011;10084;50.518;8.588;2022-11-20T06:45:25;0.30;;;0.30;;
19846;SDS011;10084;50.518;8.588;2022-11-20T06:47:51;0.40;;;0.20;;
19846;SDS011;10084;50.518;8.588;2022-11-20T06:50:16;0.27;;;0.23;;
19846;SDS011;10084;50.518;8.588;2022-11-20T06:52:42;0.83;;;0.40;;
19846;SDS011;10084;50.518;8.588;2022-11-20T06:55:08;0.13;;;0.10;;
19846;SDS011;10084;50.518;8.588;2022-11-20T06:57:33;0.67;;;0.60;;
19846;SDS011;10084;50.518;8.588;2022-11-20T06:59:59;0.47;;;0.33;;
19846;SDS011;10084;50.518;8.588;2022-11-20T07:02:25;0.30;;;0.20;;
19846;SDS011;10084;50.518;8.588;2022-11-20T07:04:51;0.10;;;0.10;;
19846;SDS011;10084;50.518;8.588;2022-11-20T07:07:16;0.60;;;0.47;;
19846;SDS011;10084;50.518;8.588;2022-11-20T07:09:42;0.57;;;0.40;;
19846;SDS011;10084;50.518;8.588;2022-11-20T07:12:08;0.10;;;0.10;;
19846;SDS011;10084;50.518;8.588;2022-11-20T07:14:34;0.30;;;0.20;;
19846;SDS011;10084;50.518;8.588;2022-11-20T07:16:59;0.30;;;0.30;;
19846;SDS011;10084;50.518;8.588;2022-11-20T07:19:25;0.50;;;0.30;;
19846;SDS011;10084;50.518;8.588;2022-11-20T07:21:51;0.30;;;0.20;;
19846;SDS011;10084;50.518;8.588;2022-11-20T07:24:16;0.33;;;0.20;;
19846;SDS011;10084;50.518;8.588;2022-11-20T07:26:42;0.30;;;0.30;;
19846;SDS011;10084;50.518;8.588;2022-11-20T07:29:12;0.40;;;0.40;;
19846;SDS011;10084;50.518;8.588;2022-11-20T07:31:37;9.20;;;0.43;;
19846;SDS011;10084;50.518;8.588;2022-11-20T07:34:03;0.43;;;0.40;;
19846;SDS011;10084;50.518;8.588;2022-11-20T07:36:29;0.17;;;0.17;;
19846;SDS011;10084;50.518;8.588;2022-11-20T07:38:54;0.47;;;0.47;;
19846;SDS011;10084;50.518;8.588;2022-11-20T07:41:20;0.60;;;0.60;;
19846;SDS011;10084;50.518;8.588;2022-11-20T07:43:46;0.40;;;0.20;;
19846;SDS011;10084;50.518;8.588;2022-11-20T07:46:11;0.60;;;0.40;;
19846;SDS011;10084;50.518;8.588;2022-11-20T07:48:37;0.50;;;0.40;;
19846;SDS011;10084;50.518;8.588;2022-11-20T07:51:02;0.37;;;0.37;;
19846;SDS011;10084;50.518;8.588;2022-11-20T07:53:28;0.67;;;0.30;;
19846;SDS011;10084;50.518;8.588;2022-11-20T07:55:54;0.33;;;0.33;;
19846;SDS011;10084;50.518;8.588;2022-11-20T07:58:20;0.20;;;0.20;;
19846;SDS011;10084;50.518;8.588;2022-11-20T08:00:46;0.53;;;0.20;;
19846;SDS011;10084;50.518;8.588;2022-11-20T08:03:12;0.50;;;0.23;;
19846;SDS011;10084;50.518;8.588;2022-11-20T08:05:38;0.53;;;0.40;;
19846;SDS011;10084;50.518;8.588;2022-11-20T08:08:03;0.83;;;0.40;;
19846;SDS011;10084;50.518;8.588;2022-11-20T08:10:29;0.30;;;0.30;;
19846;SDS011;10084;50.518;8.588;2022-11-20T08:12:55;0.90;;;0.27;;
19846;SDS011;10084;50.518;8.588;2022-11-20T08:15:39;0.60;;;0.47;;
19846;SDS011;10084;50.518;8.588;2022-11-20T08:18:06;0.40;;;0.37;;
19846;SDS011;10084;50.518;8.588;2022-11-20T08:20:34;0.30;;;0.30;;
19846;SDS011;10084;50.518;8.588;2022-11-20T08:23:04;1.03;;;0.30;;
19846;SDS011;10084;50.518;8.588;2022-11-20T08:25:31;0.80;;;0.50;;
19846;SDS011;10084;50.518;8.588;2022-11-20T08:27:59;0.50;;;0.50;;
19846;SDS011;10084;50.518;8.588;2022-11-20T08:30:26;0.30;;;0.30;;
19846;SDS011;10084;50.518;8.588;2022-11-20T08:32:53;1.13;;;0.50;;
19846;SDS011;10084;50.518;8.588;2022-11-20T08:35:19;0.73;;;0.33;;
19846;SDS011;10084;50.518;8.588;2022-11-20T08:37:48;0.60;;;0.60;;
19846;SDS011;10084;50.518;8.588;2022-11-20T08:40:14;0.97;;;0.70;;
19846;SDS011;10084;50.518;8.588;2022-11-20T08:42:49;0.90;;;0.70;;
19846;SDS011;10084;50.518;8.588;2022-11-20T08:45:16;0.40;;;0.40;;
19846;SDS011;10084;50.518;8.588;2022-11-20T08:47:43;0.60;;;0.40;;
19846;SDS011;10084;50.518;8.588;2022-11-20T08:50:13;1.27;;;0.73;;
19846;SDS011;10084;50.518;8.588;2022-11-20T08:52:39;0.60;;;0.60;;
19846;SDS011;10084;50.518;8.588;2022-11-20T08:55:05;1.37;;;0.53;;
19846;SDS011;10084;50.518;8.588;2022-11-20T08:57:32;0.60;;;0.60;;
19846;SDS011;10084;50.518;8.588;2022-11-20T08:59:59;0.40;;;0.40;;
19846;SDS011;10084;50.518;8.588;2022-11-20T09:02:24;1.43;;;0.77;;
19846;SDS011;10084;50.518;8.588;2022-11-20T09:04:50;1.23;;;0.90;;
19846;SDS011;10084;50.518;8.588;2022-11-20T09:07:16;1.43;;;0.83;;
19846;SDS011;10084;50.518;8.588;2022-11-20T09:09:42;1.23;;;0.70;;
19846;SDS011;10084;50.518;8.588;2022-11-20T09:12:08;0.80;;;0.80;;
19846;SDS011;10084;50.518;8.588;2022-11-20T09:14:33;1.67;;;1.00;;
19846;SDS011;10084;50.518;8.588;2022-11-20T09:16:59;1.30;;;0.90;;
19846;SDS011;10084;50.518;8.588;2022-11-20T09:19:25;1.43;;;1.03;;
19846;SDS011;10084;50.518;8.588;2022-11-20T09:21:50;1.53;;;0.70;;
19846;SDS011;10084;50.518;8.588;2022-11-20T09:24:16;0.73;;;0.70;;
19846;SDS011;10084;50.518;8.588;2022-11-20T09:26:43;1.60;;;0.70;;
19846;SDS011;10084;50.518;8.588;2022-11-20T09:29:08;0.97;;;0.80;;
19846;SDS011;10084;50.518;8.588;2022-11-20T09:31:34;2.17;;;1.43;;
19846;SDS011;10084;50.518;8.588;2022-11-20T09:34:00;2.10;;;1.23;;
19846;SDS011;10084;50.518;8.588;2022-11-20T09:36:26;1.57;;;1.27;;
19846;SDS011;10084;50.518;8.588;2022-11-20T09:38:52;3.90;;;1.90;;
19846;SDS011;10084;50.518;8.588;2022-11-20T09:42:07;4.73;;;1.77;;
19846;SDS011;10084;50.518;8.588;2022-11-20T09:46:53;2.53;;;1.70;;
19846;SDS011;10084;50.518;8.588;2022-11-20T09:55:20;2.27;;;1.87;;
19846;SDS011;10084;50.518;8.588;2022-11-20T09:57:47;2.10;;;1.90;;
19846;SDS011;10084;50.518;8.588;2022-11-20T10:00:16;1.57;;;1.10;;
19846;SDS011;10084;50.518;8.588;2022-11-20T10:05:35;1.90;;;1.03;;
19846;SDS011;10084;50.518;8.588;2022-11-20T10:13:54;2.20;;;1.47;;
19846;SDS011;10084;50.518;8.588;2022-11-20T10:19:21;0.93;;;0.83;;
19846;SDS011;10084;50.518;8.588;2022-11-20T10:24:55;3.67;;;1.00;;
19846;SDS011;10084;50.518;8.588;2022-11-20T10:32:35;1.97;;;0.83;;
19846;SDS011;10084;50.518;8.588;2022-11-20T10:37:40;1.10;;;1.00;;
19846;SDS011;10084;50.518;8.588;2022-11-20T10:42:55;1.73;;;1.07;;
19846;SDS011;10084;50.518;8.588;2022-11-20T10:45:33;3.23;;;1.20;;
19846;SDS011;10084;50.518;8.588;2022-11-20T10:56:17;1.17;;;1.07;;
19846;SDS011;10084;50.518;8.588;2022-11-20T10:59:03;2.20;;;1.10;;
19846;SDS011;10084;50.518;8.588;2022-11-20T11:01:40;1.20;;;1.10;;
19846;SDS011;10084;50.518;8.588;2022-11-20T11:04:15;1.60;;;0.97;;
19846;SDS011;10084;50.518;8.588;2022-11-20T11:07:08;1.27;;;0.63;;
19846;SDS011;10084;50.518;8.588;2022-11-20T11:09:45;1.93;;;0.80;;
19846;SDS011;10084;50.518;8.588;2022-11-20T11:12:13;1.50;;;1.30;;
19846;SDS011;10084;50.518;8.588;2022-11-20T11:14:46;3.13;;;1.30;;
19846;SDS011;10084;50.518;8.588;2022-11-20T11:17:24;3.17;;;1.13;;
19846;SDS011;10084;50.518;8.588;2022-11-20T11:19:59;6.73;;;1.40;;
19846;SDS011;10084;50.518;8.588;2022-11-20T11:22:30;2.57;;;1.23;;
19846;SDS011;10084;50.518;8.588;2022-11-20T11:24:58;1.47;;;0.70;;
19846;SDS011;10084;50.518;8.588;2022-11-20T11:27:24;4.83;;;1.20;;
19846;SDS011;10084;50.518;8.588;2022-11-20T11:29:50;0.70;;;0.67;;
19846;SDS011;10084;50.518;8.588;2022-11-20T11:32:27;1.23;;;0.97;;
19846;SDS011;10084;50.518;8.588;2022-11-20T11:35:27;3.10;;;1.10;;
19846;SDS011;10084;50.518;8.588;2022-11-20T11:37:45;2.30;;;1.13;;
19846;SDS011;10084;50.518;8.588;2022-11-20T11:40:12;2.37;;;1.10;;
19846;SDS011;10084;50.518;8.588;2022-11-20T11:42:42;1.87;;;1.07;;
19846;SDS011;10084;50.518;8.588;2022-11-20T11:45:14;2.57;;;1.10;;
19846;SDS011;10084;50.518;8.588;2022-11-20T11:52:36;1.73;;;0.83;;
19846;SDS011;10084;50.518;8.588;2022-11-20T11:55:12;1.83;;;1.30;;
19846;SDS011;10084;50.518;8.588;2022-11-20T12:03:53;4.47;;;1.33;;
19846;SDS011;10084;50.518;8.588;2022-11-20T12:06:26;0.87;;;0.57;;
19846;SDS011;10084;50.518;8.588;2022-11-20T12:08:58;2.77;;;1.13;;
19846;SDS011;10084;50.518;8.588;2022-11-20T12:14:39;1.40;;;1.10;;
19846;SDS011;10084;50.518;8.588;2022-11-20T12:17:11;1.57;;;1.27;;
19846;SDS011;10084;50.518;8.588;2022-11-20T12:19:39;2.40;;;1.07;;
19846;SDS011;10084;50.518;8.588;2022-11-20T12:32:41;2.50;;;1.53;;
19846;SDS011;10084;50.518;8.588;2022-11-20T12:55:21;1.80;;;0.87;;
19846;SDS011;10084;50.518;8.588;2022-11-20T13:00:22;2.07;;;1.57;;
19846;SDS011;10084;50.518;8.588;2022-11-20T13:06:17;3.47;;;1.27;;
19846;SDS011;10084;50.518;8.588;2022-11-20T13:08:48;0.80;;;0.63;;
19846;SDS011;10084;50.518;8.588;2022-11-20T13:14:21;2.40;;;0.77;;
19846;SDS011;10084;50.518;8.588;2022-11-20T13:19:36;1.60;;;1.17;;
19846;SDS011;10084;50.518;8.588;2022-11-20T13:22:03;1.50;;;0.97;;
19846;SDS011;10084;50.518;8.588;2022-11-20T13:24:32;1.80;;;1.03;;
19846;SDS011;10084;50.518;8.588;2022-11-20T13:29:39;1.57;;;1.33;;
19846;SDS011;10084;50.518;8.588;2022-11-20T13:34:51;0.83;;;0.70;;
19846;SDS011;10084;50.518;8.588;2022-11-20T13:37:39;1.03;;;0.80;;
19846;SDS011;10084;50.518;8.588;2022-11-20T13:40:11;4.47;;;1.10;;
19846;SDS011;10084;50.518;8.588;2022-11-20T13:45:22;1.77;;;1.27;;
19846;SDS011;10084;50.518;8.588;2022-11-20T13:47:48;2.47;;;0.90;;
19846;SDS011;10084;50.518;8.588;2022-11-20T13:50:16;1.40;;;1.30;;
19846;SDS011;10084;50.518;8.588;2022-11-20T13:55:36;0.70;;;0.63;;
19846;SDS011;10084;50.518;8.588;2022-11-20T14:01:00;6.93;;;0.90;;
19846;SDS011;10084;50.518;8.588;2022-11-20T14:03:33;1.70;;;1.10;;
19846;SDS011;10084;50.518;8.588;2022-11-20T14:06:03;0.90;;;0.80;;
19846;SDS011;10084;50.518;8.588;2022-11-20T14:08:40;1.23;;;0.60;;
19846;SDS011;10084;50.518;8.588;2022-11-20T14:14:10;1.90;;;1.37;;
19846;SDS011;10084;50.518;8.588;2022-11-20T14:16:40;1.43;;;0.93;;
19846;SDS011;10084;50.518;8.588;2022-11-20T14:21:46;1.37;;;0.87;;
19846;SDS011;10084;50.518;8.588;2022-11-20T14:24:20;0.93;;;0.90;;
19846;SDS011;10084;50.518;8.588;2022-11-20T14:26:47;1.87;;;0.93;;
19846;SDS011;10084;50.518;8.588;2022-11-20T14:29:15;0.97;;;0.73;;
19846;SDS011;10084;50.518;8.588;2022-11-20T14:31:43;3.23;;;0.70;;
19846;SDS011;10084;50.518;8.588;2022-11-20T14:34:14;0.73;;;0.50;;
19846;SDS011;10084;50.518;8.588;2022-11-20T14:36:43;1.83;;;1.00;;
19846;SDS011;10084;50.518;8.588;2022-11-20T14:39:22;1.33;;;0.70;;
19846;SDS011;10084;50.518;8.588;2022-11-20T14:41:54;1.43;;;0.80;;
19846;SDS011;10084;50.518;8.588;2022-11-20T14:44:21;1.10;;;0.70;;
19846;SDS011;10084;50.518;8.588;2022-11-20T14:46:51;3.67;;;1.33;;
19846;SDS011;10084;50.518;8.588;2022-11-20T14:49:17;5.67;;;1.90;;
19846;SDS011;10084;50.518;8.588;2022-11-20T14:51:43;2.67;;;2.10;;
19846;SDS011;10084;50.518;8.588;2022-11-20T14:56:39;3.13;;;2.40;;
19846;SDS011;10084;50.518;8.588;2022-11-20T14:59:05;2.80;;;2.20;;
19846;SDS011;10084;50.518;8.588;2022-11-20T15:01:32;3.13;;;2.63;;
19846;SDS011;10084;50.518;8.588;2022-11-20T15:03:59;3.87;;;1.97;;
19846;SDS011;10084;50.518;8.588;2022-11-20T15:06:34;2.17;;;1.97;;
19846;SDS011;10084;50.518;8.588;2022-11-20T15:09:00;6.30;;;2.37;;
19846;SDS011;10084;50.518;8.588;2022-11-20T15:11:38;2.70;;;2.50;;
19846;SDS011;10084;50.518;8.588;2022-11-20T15:14:04;4.97;;;2.50;;
19846;SDS011;10084;50.518;8.588;2022-11-20T15:16:31;4.17;;;2.27;;
19846;SDS011;10084;50.518;8.588;2022-11-20T15:18:58;1.90;;;1.70;;
19846;SDS011;10084;50.518;8.588;2022-11-20T15:21:24;5.97;;;1.90;;
19846;SDS011;10084;50.518;8.588;2022-11-20T15:23:50;2.33;;;1.97;;
19846;SDS011;10084;50.518;8.588;2022-11-20T15:26:23;2.63;;;1.90;;
19846;SDS011;10084;50.518;8.588;2022-11-20T15:28:51;1.67;;;1.57;;
19846;SDS011;10084;50.518;8.588;2022-11-20T15:31:19;5.13;;;1.70;;
19846;SDS011;10084;50.518;8.588;2022-11-20T15:33:46;4.70;;;1.40;;
19846;SDS011;10084;50.518;8.588;2022-11-20T15:36:12;4.30;;;1.93;;
19846;SDS011;10084;50.518;8.588;2022-11-20T15:38:39;1.97;;;1.60;;
19846;SDS011;10084;50.518;8.588;2022-11-20T15:41:05;5.70;;;2.00;;
19846;SDS011;10084;50.518;8.588;2022-11-20T15:43:31;1.40;;;1.30;;
19846;SDS011;10084;50.518;8.588;2022-11-20T15:46:00;1.13;;;1.07;;
19846;SDS011;10084;50.518;8.588;2022-11-20T15:48:44;2.17;;;1.73;;
19846;SDS011;10084;50.518;8.588;2022-11-20T15:51:21;3.53;;;2.23;;
19846;SDS011;10084;50.518;8.588;2022-11-20T15:53:52;1.60;;;1.50;;
19846;SDS011;10084;50.518;8.588;2022-11-20T15:56:19;2.30;;;1.37;;
19846;SDS011;10084;50.518;8.588;2022-11-20T15:58:44;2.93;;;1.97;;
19846;SDS011;10084;50.518;8.588;2022-11-20T16:01:14;1.73;;;1.60;;
19846;SDS011;10084;50.518;8.588;2022-11-20T16:03:42;1.30;;;1.20;;
19846;SDS011;10084;50.518;8.588;2022-11-20T16:06:08;1.30;;;1.20;;
19846;SDS011;10084;50.518;8.588;2022-11-20T16:08:33;3.73;;;1.30;;
19846;SDS011;10084;50.518;8.588;2022-11-20T16:10:59;2.10;;;1.90;;
19846;SDS011;10084;50.518;8.588;2022-11-20T16:13:25;7.87;;;1.47;;
19846;SDS011;10084;50.518;8.588;2022-11-20T16:16:11;3.60;;;1.33;;
19846;SDS011;10084;50.518;8.588;2022-11-20T16:18:53;1.67;;;1.33;;
19846;SDS011;10084;50.518;8.588;2022-11-20T16:21:19;2.33;;;1.20;;
19846;SDS011;10084;50.518;8.588;2022-11-20T16:23:45;1.70;;;1.17;;
19846;SDS011;10084;50.518;8.588;2022-11-20T16:26:17;2.13;;;1.63;;
19846;SDS011;10084;50.518;8.588;2022-11-20T16:28:44;2.30;;;2.07;;
19846;SDS011;10084;50.518;8.588;2022-11-20T16:31:13;1.43;;;1.33;;
19846;SDS011;10084;50.518;8.588;2022-11-20T16:33:40;6.57;;;1.30;;
19846;SDS011;10084;50.518;8.588;2022-11-20T16:36:10;3.57;;;1.80;;
19846;SDS011;10084;50.518;8.588;2022-11-20T16:38:38;2.87;;;1.50;;
19846;SDS011;10084;50.518;8.588;2022-11-20T16:41:04;2.43;;;1.50;;
19846;SDS011;10084;50.518;8.588;2022-11-20T16:43:30;2.23;;;1.73;;
19846;SDS011;10084;50.518;8.588;2022-11-20T16:45:56;5.03;;;1.30;;
19846;SDS011;10084;50.518;8.588;2022-11-20T16:48:22;1.50;;;1.30;;
19846;SDS011;10084;50.518;8.588;2022-11-20T16:50:49;4.07;;;1.67;;
19846;SDS011;10084;50.518;8.588;2022-11-20T16:53:17;10.43;;;1.20;;
19846;SDS011;10084;50.518;8.588;2022-11-20T16:55:44;2.37;;;1.37;;
19846;SDS011;10084;50.518;8.588;2022-11-20T16:58:10;3.57;;;1.23;;
19846;SDS011;10084;50.518;8.588;2022-11-20T17:00:39;5.80;;;1.10;;
19846;SDS011;10084;50.518;8.588;2022-11-20T17:03:06;3.30;;;1.37;;